sensor_id;sensor_type;location;lat;lon;timestamp;temperature;humidity
28175;SHT30;59417;44.788;10.334;2023-04-06T00:01:10;8.07;44.82
28175;SHT30;59417;44.788;10.334;2023-04-06T00:03:35;8.07;44.54
28175;SHT30;59417;44.788;10.334;2023-04-06T00:06:01;8.05;44.11
28175;SHT30;59417;44.788;10.334;2023-04-06T00:08:27;8.10;44.18
28175;SHT30;59417;44.788;10.334;2023-04-06T00:10:53;8.21;44.07
28175;SHT30;59417;44.788;10.334;2023-04-06T00:13:19;8.04;45.56
28175;SHT30;59417;44.788;10.334;2023-04-06T00:15:45;7.77;46.09
28175;SHT30;59417;44.788;10.334;2023-04-06T00:18:11;7.78;45.57
28175;SHT30;59417;44.788;10.334;2023-04-06T00:20:37;7.61;46.64
28175;SHT30;59417;44.788;10.334;2023-04-06T00:23:03;7.32;47.31
28175;SHT30;59417;44.788;10.334;2023-04-06T00:25:28;7.20;47.70
28175;SHT30;59417;44.788;10.334;2023-04-06T00:27:54;7.16;47.59
28175;SHT30;59417;44.788;10.334;2023-04-06T00:30:20;7.09;47.71
28175;SHT30;59417;44.788;10.334;2023-04-06T00:32:46;7.30;46.26
28175;SHT30;59417;44.788;10.334;2023-04-06T00:35:11;7.44;45.12
28175;SHT30;59417;44.788;10.334;2023-04-06T00:37:37;7.66;44.75
28175;SHT30;59417;44.788;10.334;2023-04-06T00:40:03;7.70;44.81
28175;SHT30;59417;44.788;10.334;2023-04-06T00:42:29;7.83;43.98
28175;SHT30;59417;44.788;10.334;2023-04-06T00:44:56;7.83;42.76
28175;SHT30;59417;44.788;10.334;2023-04-06T00:47:23;7.98;42.11
28175;SHT30;59417;44.788;10.334;2023-04-06T00:49:51;8.04;42.33
28175;SHT30;59417;44.788;10.334;2023-04-06T00:52:18;7.78;43.83
28175;SHT30;59417;44.788;10.334;2023-04-06T00:54:46;7.30;45.43
28175;SHT30;59417;44.788;10.334;2023-04-06T00:57:14;7.42;44.76
28175;SHT30;59417;44.788;10.334;2023-04-06T00:59:41;7.66;44.18
28175;SHT30;59417;44.788;10.334;2023-04-06T01:02:10;7.43;44.60
28175;SHT30;59417;44.788;10.334;2023-04-06T01:04:42;7.33;44.43
28175;SHT30;59417;44.788;10.334;2023-04-06T01:07:13;7.49;43.15
28175;SHT30;59417;44.788;10.334;2023-04-06T01:09:48;7.49;42.66
28175;SHT30;59417;44.788;10.334;2023-04-06T01:12:20;7.59;42.33
28175;SHT30;59417;44.788;10.334;2023-04-06T01:14:46;7.59;42.48
28175;SHT30;59417;44.788;10.334;2023-04-06T01:17:12;7.61;42.42
28175;SHT30;59417;44.788;10.334;2023-04-06T01:19:39;7.59;42.55
28175;SHT30;59417;44.788;10.334;2023-04-06T01:22:07;7.76;41.90
28175;SHT30;59417;44.788;10.334;2023-04-06T01:24:55;7.56;42.42
28175;SHT30;59417;44.788;10.334;2023-04-06T01:27:31;7.54;41.66
28175;SHT30;59417;44.788;10.334;2023-04-06T01:30:16;7.64;41.85
28175;SHT30;59417;44.788;10.334;2023-04-06T01:32:47;7.64;42.03
28175;SHT30;59417;44.788;10.334;2023-04-06T01:35:18;7.54;42.79
28175;SHT30;59417;44.788;10.334;2023-04-06T01:37:54;7.33;43.10
28175;SHT30;59417;44.788;10.334;2023-04-06T01:40:27;7.47;43.11
28175;SHT30;59417;44.788;10.334;2023-04-06T01:42:53;7.26;43.75
28175;SHT30;59417;44.788;10.334;2023-04-06T01:45:27;7.04;44.10
28175;SHT30;59417;44.788;10.334;2023-04-06T01:47:58;6.53;45.07
28175;SHT30;59417;44.788;10.334;2023-04-06T01:50:25;6.71;44.66
28175;SHT30;59417;44.788;10.334;2023-04-06T01:52:51;6.78;44.69
28175;SHT30;59417;44.788;10.334;2023-04-06T01:55:17;6.61;45.54
28175;SHT30;59417;44.788;10.334;2023-04-06T01:58:09;6.45;46.84
28175;SHT30;59417;44.788;10.334;2023-04-06T02:00:37;6.21;47.77
28175;SHT30;59417;44.788;10.334;2023-04-06T02:03:03;6.00;48.32
28175;SHT30;59417;44.788;10.334;2023-04-06T02:05:31;5.90;48.20
28175;SHT30;59417;44.788;10.334;2023-04-06T02:07:59;6.00;47.56
28175;SHT30;59417;44.788;10.334;2023-04-06T02:10:35;6.37;46.86
28175;SHT30;59417;44.788;10.334;2023-04-06T02:13:10;6.45;46.89
28175;SHT30;59417;44.788;10.334;2023-04-06T02:15:35;6.31;47.29
28175;SHT30;59417;44.788;10.334;2023-04-06T02:18:01;6.53;46.88
28175;SHT30;59417;44.788;10.334;2023-04-06T02:20:27;6.65;46.56
28175;SHT30;59417;44.788;10.334;2023-04-06T02:22:52;6.85;45.56
28175;SHT30;59417;44.788;10.334;2023-04-06T02:25:19;6.71;46.31
28175;SHT30;59417;44.788;10.334;2023-04-06T02:27:45;6.73;47.10
28175;SHT30;59417;44.788;10.334;2023-04-06T02:30:11;6.54;48.49
28175;SHT30;59417;44.788;10.334;2023-04-06T02:32:37;6.31;48.20
28175;SHT30;59417;44.788;10.334;2023-04-06T02:35:03;6.29;48.65
28175;SHT30;59417;44.788;10.334;2023-04-06T02:37:32;6.29;48.21
28175;SHT30;59417;44.788;10.334;2023-04-06T02:39:58;6.44;48.56
28175;SHT30;59417;44.788;10.334;2023-04-06T02:42:24;6.27;49.37
28175;SHT30;59417;44.788;10.334;2023-04-06T02:44:51;6.41;49.12
28175;SHT30;59417;44.788;10.334;2023-04-06T02:47:19;5.89;50.50
28175;SHT30;59417;44.788;10.334;2023-04-06T02:49:48;5.62;51.70
28175;SHT30;59417;44.788;10.334;2023-04-06T02:52:14;5.98;50.80
28175;SHT30;59417;44.788;10.334;2023-04-06T02:54:40;5.49;51.99
28175;SHT30;59417;44.788;10.334;2023-04-06T02:57:05;5.59;51.57
28175;SHT30;59417;44.788;10.334;2023-04-06T02:59:41;5.89;50.78
28175;SHT30;59417;44.788;10.334;2023-04-06T03:02:15;5.83;51.04
28175;SHT30;59417;44.788;10.334;2023-04-06T03:04:43;5.85;50.62
28175;SHT30;59417;44.788;10.334;2023-04-06T03:07:19;6.00;50.09
28175;SHT30;59417;44.788;10.334;2023-04-06T03:09:45;5.78;50.88
28175;SHT30;59417;44.788;10.334;2023-04-06T03:12:11;5.95;50.64
28175;SHT30;59417;44.788;10.334;2023-04-06T03:14:59;5.92;50.55
28175;SHT30;59417;44.788;10.334;2023-04-06T03:17:25;6.02;50.69
28175;SHT30;59417;44.788;10.334;2023-04-06T03:19:52;5.90;50.18
28175;SHT30;59417;44.788;10.334;2023-04-06T03:22:19;5.92;50.18
28175;SHT30;59417;44.788;10.334;2023-04-06T03:24:46;5.99;49.12
28175;SHT30;59417;44.788;10.334;2023-04-06T03:27:12;6.02;48.55
28175;SHT30;59417;44.788;10.334;2023-04-06T03:29:39;6.24;47.83
28175;SHT30;59417;44.788;10.334;2023-04-06T03:32:06;6.13;47.79
28175;SHT30;59417;44.788;10.334;2023-04-06T03:34:37;6.26;47.43
28175;SHT30;59417;44.788;10.334;2023-04-06T03:37:03;6.37;46.50
28175;SHT30;59417;44.788;10.334;2023-04-06T03:39:29;6.14;48.13
28175;SHT30;59417;44.788;10.334;2023-04-06T03:41:55;5.69;49.02
28175;SHT30;59417;44.788;10.334;2023-04-06T03:44:32;5.44;49.86
28175;SHT30;59417;44.788;10.334;2023-04-06T03:46:58;5.49;49.38
28175;SHT30;59417;44.788;10.334;2023-04-06T03:49:24;5.62;48.87
28175;SHT30;59417;44.788;10.334;2023-04-06T03:51:52;5.62;47.57
28175;SHT30;59417;44.788;10.334;2023-04-06T03:54:18;5.83;46.41
28175;SHT30;59417;44.788;10.334;2023-04-06T03:56:44;5.88;45.65
28175;SHT30;59417;44.788;10.334;2023-04-06T03:59:09;5.82;45.79
28175;SHT30;59417;44.788;10.334;2023-04-06T04:01:35;5.83;44.24
28175;SHT30;59417;44.788;10.334;2023-04-06T04:04:01;5.90;44.11
28175;SHT30;59417;44.788;10.334;2023-04-06T04:06:30;5.95;44.54
28175;SHT30;59417;44.788;10.334;2023-04-06T04:08:56;6.02;45.34
28175;SHT30;59417;44.788;10.334;2023-04-06T04:11:22;5.86;45.15
28175;SHT30;59417;44.788;10.334;2023-04-06T04:13:53;5.98;44.69
28175;SHT30;59417;44.788;10.334;2023-04-06T04:16:19;5.88;44.94
28175;SHT30;59417;44.788;10.334;2023-04-06T04:18:45;5.92;44.69
28175;SHT30;59417;44.788;10.334;2023-04-06T04:21:12;5.74;45.09
28175;SHT30;59417;44.788;10.334;2023-04-06T04:23:38;5.96;44.82
28175;SHT30;59417;44.788;10.334;2023-04-06T04:26:04;5.86;44.51
28175;SHT30;59417;44.788;10.334;2023-04-06T04:28:30;6.06;43.83
28175;SHT30;59417;44.788;10.334;2023-04-06T04:30:56;5.59;45.71
28175;SHT30;59417;44.788;10.334;2023-04-06T04:33:22;4.99;47.08
28175;SHT30;59417;44.788;10.334;2023-04-06T04:35:50;4.73;46.21
28175;SHT30;59417;44.788;10.334;2023-04-06T04:38:19;4.55;46.94
28175;SHT30;59417;44.788;10.334;2023-04-06T04:40:50;4.63;46.74
28175;SHT30;59417;44.788;10.334;2023-04-06T04:43:15;4.42;47.97
28175;SHT30;59417;44.788;10.334;2023-04-06T04:45:41;4.56;47.00
28175;SHT30;59417;44.788;10.334;2023-04-06T04:48:29;4.44;47.16
28175;SHT30;59417;44.788;10.334;2023-04-06T04:51:00;4.48;46.37
28175;SHT30;59417;44.788;10.334;2023-04-06T04:53:31;4.61;46.30
28175;SHT30;59417;44.788;10.334;2023-04-06T04:56:03;4.79;45.95
28175;SHT30;59417;44.788;10.334;2023-04-06T04:58:29;4.92;45.99
28175;SHT30;59417;44.788;10.334;2023-04-06T05:00:58;4.97;45.70
28175;SHT30;59417;44.788;10.334;2023-04-06T05:03:25;5.27;44.69
28175;SHT30;59417;44.788;10.334;2023-04-06T05:05:58;5.13;45.82
28175;SHT30;59417;44.788;10.334;2023-04-06T05:08:28;4.86;46.80
28175;SHT30;59417;44.788;10.334;2023-04-06T05:10:54;4.58;46.99
28175;SHT30;59417;44.788;10.334;2023-04-06T05:13:20;4.61;46.88
28175;SHT30;59417;44.788;10.334;2023-04-06T05:15:47;4.61;47.16
28175;SHT30;59417;44.788;10.334;2023-04-06T05:18:23;4.65;46.98
28175;SHT30;59417;44.788;10.334;2023-04-06T05:20:49;4.68;46.95
28175;SHT30;59417;44.788;10.334;2023-04-06T05:23:18;4.77;46.62
28175;SHT30;59417;44.788;10.334;2023-04-06T05:25:44;4.83;46.29
28175;SHT30;59417;44.788;10.334;2023-04-06T05:28:16;4.86;46.33
28175;SHT30;59417;44.788;10.334;2023-04-06T05:30:43;4.93;46.05
28175;SHT30;59417;44.788;10.334;2023-04-06T05:33:10;5.00;45.84
28175;SHT30;59417;44.788;10.334;2023-04-06T05:35:55;4.90;45.98
28175;SHT30;59417;44.788;10.334;2023-04-06T05:38:21;4.87;46.52
28175;SHT30;59417;44.788;10.334;2023-04-06T05:40:47;4.89;46.82
28175;SHT30;59417;44.788;10.334;2023-04-06T05:43:17;4.99;46.77
28175;SHT30;59417;44.788;10.334;2023-04-06T05:45:47;4.96;47.40
28175;SHT30;59417;44.788;10.334;2023-04-06T05:48:12;4.87;47.58
28175;SHT30;59417;44.788;10.334;2023-04-06T05:50:38;4.93;47.53
28175;SHT30;59417;44.788;10.334;2023-04-06T05:53:05;5.01;47.49
28175;SHT30;59417;44.788;10.334;2023-04-06T05:55:37;5.18;47.01
28175;SHT30;59417;44.788;10.334;2023-04-06T05:58:11;5.26;46.78
28175;SHT30;59417;44.788;10.334;2023-04-06T06:00:37;5.28;46.85
28175;SHT30;59417;44.788;10.334;2023-04-06T06:03:06;5.44;46.58
28175;SHT30;59417;44.788;10.334;2023-04-06T06:05:34;5.54;46.13
28175;SHT30;59417;44.788;10.334;2023-04-06T06:08:07;5.44;47.28
28175;SHT30;59417;44.788;10.334;2023-04-06T06:10:34;5.52;46.42
28175;SHT30;59417;44.788;10.334;2023-04-06T06:13:00;5.74;44.67
28175;SHT30;59417;44.788;10.334;2023-04-06T06:15:26;5.86;43.54
28175;SHT30;59417;44.788;10.334;2023-04-06T06:17:52;5.89;44.08
28175;SHT30;59417;44.788;10.334;2023-04-06T06:20:18;5.88;43.17
28175;SHT30;59417;44.788;10.334;2023-04-06T06:22:43;5.89;43.02
28175;SHT30;59417;44.788;10.334;2023-04-06T06:25:14;5.96;44.02
28175;SHT30;59417;44.788;10.334;2023-04-06T06:27:41;6.06;43.00
28175;SHT30;59417;44.788;10.334;2023-04-06T06:30:08;6.29;42.61
28175;SHT30;59417;44.788;10.334;2023-04-06T06:32:38;6.37;43.04
28175;SHT30;59417;44.788;10.334;2023-04-06T06:35:04;6.40;42.07
28175;SHT30;59417;44.788;10.334;2023-04-06T06:37:29;6.44;42.59
28175;SHT30;59417;44.788;10.334;2023-04-06T06:39:55;6.55;42.30
28175;SHT30;59417;44.788;10.334;2023-04-06T06:42:21;6.67;42.33
28175;SHT30;59417;44.788;10.334;2023-04-06T06:44:59;6.67;43.12
28175;SHT30;59417;44.788;10.334;2023-04-06T06:47:25;6.67;43.42
28175;SHT30;59417;44.788;10.334;2023-04-06T06:49:51;6.81;41.60
28175;SHT30;59417;44.788;10.334;2023-04-06T06:52:17;7.06;41.32
28175;SHT30;59417;44.788;10.334;2023-04-06T06:54:43;7.19;40.54
28175;SHT30;59417;44.788;10.334;2023-04-06T06:57:09;7.14;42.13
28175;SHT30;59417;44.788;10.334;2023-04-06T06:59:35;7.14;41.38
28175;SHT30;59417;44.788;10.334;2023-04-06T07:02:01;7.14;41.30
28175;SHT30;59417;44.788;10.334;2023-04-06T07:04:26;7.23;41.30
28175;SHT30;59417;44.788;10.334;2023-04-06T07:06:52;7.39;40.91
28175;SHT30;59417;44.788;10.334;2023-04-06T07:09:18;7.59;39.45
28175;SHT30;59417;44.788;10.334;2023-04-06T07:11:44;7.81;39.50
28175;SHT30;59417;44.788;10.334;2023-04-06T07:14:09;8.08;38.17
28175;SHT30;59417;44.788;10.334;2023-04-06T07:16:37;8.20;38.33
28175;SHT30;59417;44.788;10.334;2023-04-06T07:19:03;8.33;38.43
28175;SHT30;59417;44.788;10.334;2023-04-06T07:21:29;8.62;38.34
28175;SHT30;59417;44.788;10.334;2023-04-06T07:23:55;8.84;37.98
28175;SHT30;59417;44.788;10.334;2023-04-06T07:26:21;8.97;36.77
28175;SHT30;59417;44.788;10.334;2023-04-06T07:28:47;9.17;35.74
28175;SHT30;59417;44.788;10.334;2023-04-06T07:31:13;9.24;35.20
28175;SHT30;59417;44.788;10.334;2023-04-06T07:33:38;9.24;36.35
28175;SHT30;59417;44.788;10.334;2023-04-06T07:36:05;9.38;36.41
28175;SHT30;59417;44.788;10.334;2023-04-06T07:38:31;9.62;36.88
28175;SHT30;59417;44.788;10.334;2023-04-06T07:40:57;9.83;36.54
28175;SHT30;59417;44.788;10.334;2023-04-06T07:43:23;9.95;34.29
28175;SHT30;59417;44.788;10.334;2023-04-06T07:45:49;9.98;33.88
28175;SHT30;59417;44.788;10.334;2023-04-06T07:48:16;9.96;35.44
28175;SHT30;59417;44.788;10.334;2023-04-06T07:50:42;10.14;35.87
28175;SHT30;59417;44.788;10.334;2023-04-06T07:53:09;10.37;36.14
28175;SHT30;59417;44.788;10.334;2023-04-06T07:55:36;10.52;37.71
28175;SHT30;59417;44.788;10.334;2023-04-06T07:58:02;10.71;36.72
28175;SHT30;59417;44.788;10.334;2023-04-06T08:00:27;10.70;37.32
28175;SHT30;59417;44.788;10.334;2023-04-06T08:02:53;10.84;38.93
28175;SHT30;59417;44.788;10.334;2023-04-06T08:05:19;11.04;38.01
28175;SHT30;59417;44.788;10.334;2023-04-06T08:07:44;11.23;37.28
28175;SHT30;59417;44.788;10.334;2023-04-06T08:10:10;11.26;37.36
28175;SHT30;59417;44.788;10.334;2023-04-06T08:12:36;11.39;38.18
28175;SHT30;59417;44.788;10.334;2023-04-06T08:15:02;11.55;38.61
28175;SHT30;59417;44.788;10.334;2023-04-06T08:17:29;11.62;37.78
28175;SHT30;59417;44.788;10.334;2023-04-06T08:19:55;11.67;37.75
28175;SHT30;59417;44.788;10.334;2023-04-06T08:22:21;11.63;38.31
28175;SHT30;59417;44.788;10.334;2023-04-06T08:24:47;11.55;38.65
28175;SHT30;59417;44.788;10.334;2023-04-06T08:27:12;11.62;38.80
28175;SHT30;59417;44.788;10.334;2023-04-06T08:29:40;11.64;38.16
28175;SHT30;59417;44.788;10.334;2023-04-06T08:32:06;11.60;36.61
28175;SHT30;59417;44.788;10.334;2023-04-06T08:34:33;11.42;38.62
28175;SHT30;59417;44.788;10.334;2023-04-06T08:36:58;11.35;38.90
28175;SHT30;59417;44.788;10.334;2023-04-06T08:39:24;11.49;37.30
28175;SHT30;59417;44.788;10.334;2023-04-06T08:41:52;11.55;37.84
28175;SHT30;59417;44.788;10.334;2023-04-06T08:44:18;11.78;36.85
28175;SHT30;59417;44.788;10.334;2023-04-06T08:46:44;12.01;36.69
28175;SHT30;59417;44.788;10.334;2023-04-06T08:49:10;12.20;36.16
28175;SHT30;59417;44.788;10.334;2023-04-06T08:51:36;12.04;34.12
28175;SHT30;59417;44.788;10.334;2023-04-06T08:54:03;12.02;35.69
28175;SHT30;59417;44.788;10.334;2023-04-06T08:56:29;12.07;34.79
28175;SHT30;59417;44.788;10.334;2023-04-06T08:58:55;12.25;35.45
28175;SHT30;59417;44.788;10.334;2023-04-06T09:01:23;12.48;35.64
28175;SHT30;59417;44.788;10.334;2023-04-06T09:03:49;12.68;34.50
28175;SHT30;59417;44.788;10.334;2023-04-06T09:06:15;12.82;33.70
28175;SHT30;59417;44.788;10.334;2023-04-06T09:08:42;12.89;33.29
28175;SHT30;59417;44.788;10.334;2023-04-06T09:11:08;13.03;31.92
28175;SHT30;59417;44.788;10.334;2023-04-06T09:13:51;13.07;33.50
28175;SHT30;59417;44.788;10.334;2023-04-06T09:16:18;13.26;33.80
28175;SHT30;59417;44.788;10.334;2023-04-06T09:18:44;13.30;32.94
28175;SHT30;59417;44.788;10.334;2023-04-06T09:21:10;13.38;34.25
28175;SHT30;59417;44.788;10.334;2023-04-06T09:23:36;13.59;34.18
28175;SHT30;59417;44.788;10.334;2023-04-06T09:26:07;13.61;33.23
28175;SHT30;59417;44.788;10.334;2023-04-06T09:28:51;13.71;33.13
28175;SHT30;59417;44.788;10.334;2023-04-06T09:31:25;13.78;29.66
28175;SHT30;59417;44.788;10.334;2023-04-06T09:33:54;13.77;30.90
28175;SHT30;59417;44.788;10.334;2023-04-06T09:36:30;13.66;29.14
28175;SHT30;59417;44.788;10.334;2023-04-06T09:39:05;13.74;30.91
28175;SHT30;59417;44.788;10.334;2023-04-06T09:41:32;13.89;31.26
28175;SHT30;59417;44.788;10.334;2023-04-06T09:46:34;14.09;30.66
28175;SHT30;59417;44.788;10.334;2023-04-06T09:49:05;14.06;28.75
28175;SHT30;59417;44.788;10.334;2023-04-06T09:51:55;13.62;29.03
28175;SHT30;59417;44.788;10.334;2023-04-06T09:54:22;13.72;29.37
28175;SHT30;59417;44.788;10.334;2023-04-06T09:57:19;13.96;31.16
28175;SHT30;59417;44.788;10.334;2023-04-06T10:00:09;14.12;30.44
28175;SHT30;59417;44.788;10.334;2023-04-06T10:02:39;14.20;30.21
28175;SHT30;59417;44.788;10.334;2023-04-06T10:05:16;14.08;28.90
28175;SHT30;59417;44.788;10.334;2023-04-06T10:07:42;14.05;28.80
28175;SHT30;59417;44.788;10.334;2023-04-06T10:10:10;14.22;28.72
28175;SHT30;59417;44.788;10.334;2023-04-06T10:12:38;14.29;28.17
28175;SHT30;59417;44.788;10.334;2023-04-06T10:15:05;14.34;29.30
28175;SHT30;59417;44.788;10.334;2023-04-06T10:17:31;14.37;28.51
28175;SHT30;59417;44.788;10.334;2023-04-06T10:20:04;14.40;27.90
28175;SHT30;59417;44.788;10.334;2023-04-06T10:22:41;14.26;26.84
28175;SHT30;59417;44.788;10.334;2023-04-06T10:25:09;14.13;27.45
28175;SHT30;59417;44.788;10.334;2023-04-06T10:27:35;14.20;30.13
28175;SHT30;59417;44.788;10.334;2023-04-06T10:30:05;14.20;29.22
28175;SHT30;59417;44.788;10.334;2023-04-06T10:32:36;13.66;28.27
28175;SHT30;59417;44.788;10.334;2023-04-06T10:35:06;13.89;29.98
28175;SHT30;59417;44.788;10.334;2023-04-06T10:38:01;13.91;28.92
28175;SHT30;59417;44.788;10.334;2023-04-06T10:40:28;13.94;30.08
28175;SHT30;59417;44.788;10.334;2023-04-06T10:42:54;13.77;28.32
28175;SHT30;59417;44.788;10.334;2023-04-06T10:45:25;13.99;28.04
28175;SHT30;59417;44.788;10.334;2023-04-06T10:47:54;14.25;27.71
28175;SHT30;59417;44.788;10.334;2023-04-06T10:50:21;14.47;27.33
28175;SHT30;59417;44.788;10.334;2023-04-06T10:52:58;14.36;27.94
28175;SHT30;59417;44.788;10.334;2023-04-06T10:55:25;14.56;28.50
28175;SHT30;59417;44.788;10.334;2023-04-06T10:57:52;14.36;27.93
28175;SHT30;59417;44.788;10.334;2023-04-06T11:00:18;14.44;27.96
28175;SHT30;59417;44.788;10.334;2023-04-06T11:02:44;14.44;27.98
28175;SHT30;59417;44.788;10.334;2023-04-06T11:05:11;14.56;27.57
28175;SHT30;59417;44.788;10.334;2023-04-06T11:07:37;14.68;27.79
28175;SHT30;59417;44.788;10.334;2023-04-06T11:10:04;14.80;27.01
28175;SHT30;59417;44.788;10.334;2023-04-06T11:12:30;14.56;27.28
28175;SHT30;59417;44.788;10.334;2023-04-06T11:14:57;14.57;27.66
28175;SHT30;59417;44.788;10.334;2023-04-06T11:17:35;14.39;27.51
28175;SHT30;59417;44.788;10.334;2023-04-06T11:20:02;14.29;27.95
28175;SHT30;59417;44.788;10.334;2023-04-06T11:22:30;14.53;27.99
28175;SHT30;59417;44.788;10.334;2023-04-06T11:25:05;14.20;30.21
28175;SHT30;59417;44.788;10.334;2023-04-06T11:27:33;14.67;28.28
28175;SHT30;59417;44.788;10.334;2023-04-06T11:30:00;14.85;28.91
28175;SHT30;59417;44.788;10.334;2023-04-06T11:32:26;15.16;30.38
28175;SHT30;59417;44.788;10.334;2023-04-06T11:34:51;15.55;30.53
28175;SHT30;59417;44.788;10.334;2023-04-06T11:37:17;15.82;28.90
28175;SHT30;59417;44.788;10.334;2023-04-06T11:39:50;15.94;28.52
28175;SHT30;59417;44.788;10.334;2023-04-06T11:42:27;16.20;29.68
28175;SHT30;59417;44.788;10.334;2023-04-06T11:44:57;16.48;29.43
28175;SHT30;59417;44.788;10.334;2023-04-06T11:47:27;16.58;28.28
28175;SHT30;59417;44.788;10.334;2023-04-06T11:49:53;16.75;29.38
28175;SHT30;59417;44.788;10.334;2023-04-06T11:52:24;16.92;28.52
28175;SHT30;59417;44.788;10.334;2023-04-06T11:54:51;17.05;28.77
28175;SHT30;59417;44.788;10.334;2023-04-06T11:57:18;17.12;27.76
28175;SHT30;59417;44.788;10.334;2023-04-06T11:59:44;16.95;26.45
28175;SHT30;59417;44.788;10.334;2023-04-06T12:02:10;16.59;27.24
28175;SHT30;59417;44.788;10.334;2023-04-06T12:04:36;16.45;28.27
28175;SHT30;59417;44.788;10.334;2023-04-06T12:07:02;16.72;28.65
28175;SHT30;59417;44.788;10.334;2023-04-06T12:09:28;16.61;26.87
28175;SHT30;59417;44.788;10.334;2023-04-06T12:11:54;16.84;26.75
28175;SHT30;59417;44.788;10.334;2023-04-06T12:14:21;16.94;27.75
28175;SHT30;59417;44.788;10.334;2023-04-06T12:16:47;16.91;27.12
28175;SHT30;59417;44.788;10.334;2023-04-06T12:19:12;17.02;27.01
28175;SHT30;59417;44.788;10.334;2023-04-06T12:21:38;17.06;26.26
28175;SHT30;59417;44.788;10.334;2023-04-06T12:24:04;16.98;27.42
28175;SHT30;59417;44.788;10.334;2023-04-06T12:26:31;16.94;26.99
28175;SHT30;59417;44.788;10.334;2023-04-06T12:28:57;16.88;26.16
28175;SHT30;59417;44.788;10.334;2023-04-06T12:31:23;17.12;28.85
28175;SHT30;59417;44.788;10.334;2023-04-06T12:33:51;17.36;28.08
28175;SHT30;59417;44.788;10.334;2023-04-06T12:36:19;17.60;27.81
28175;SHT30;59417;44.788;10.334;2023-04-06T12:38:48;17.78;26.48
28175;SHT30;59417;44.788;10.334;2023-04-06T12:41:14;17.57;26.10
28175;SHT30;59417;44.788;10.334;2023-04-06T12:43:41;17.74;27.20
28175;SHT30;59417;44.788;10.334;2023-04-06T12:46:07;17.80;27.25
28175;SHT30;59417;44.788;10.334;2023-04-06T12:48:33;17.66;25.82
28175;SHT30;59417;44.788;10.334;2023-04-06T12:51:05;17.77;26.68
28175;SHT30;59417;44.788;10.334;2023-04-06T12:53:32;17.29;27.03
28175;SHT30;59417;44.788;10.334;2023-04-06T12:55:58;16.86;26.90
28175;SHT30;59417;44.788;10.334;2023-04-06T12:58:25;16.99;27.04
28175;SHT30;59417;44.788;10.334;2023-04-06T13:00:54;16.57;26.56
28175;SHT30;59417;44.788;10.334;2023-04-06T13:03:21;16.37;26.60
28175;SHT30;59417;44.788;10.334;2023-04-06T13:05:49;16.28;25.63
28175;SHT30;59417;44.788;10.334;2023-04-06T13:08:16;16.48;26.16
28175;SHT30;59417;44.788;10.334;2023-04-06T13:10:49;16.34;26.79
28175;SHT30;59417;44.788;10.334;2023-04-06T13:13:16;16.27;27.81
28175;SHT30;59417;44.788;10.334;2023-04-06T13:15:42;16.47;27.62
28175;SHT30;59417;44.788;10.334;2023-04-06T13:18:08;16.42;28.56
28175;SHT30;59417;44.788;10.334;2023-04-06T13:20:35;16.69;29.11
28175;SHT30;59417;44.788;10.334;2023-04-06T13:23:01;16.37;26.69
28175;SHT30;59417;44.788;10.334;2023-04-06T13:25:26;16.64;28.73
28175;SHT30;59417;44.788;10.334;2023-04-06T13:27:53;16.85;26.95
28175;SHT30;59417;44.788;10.334;2023-04-06T13:30:19;16.33;27.64
28175;SHT30;59417;44.788;10.334;2023-04-06T13:32:44;16.21;27.18
28175;SHT30;59417;44.788;10.334;2023-04-06T13:35:10;16.37;27.64
28175;SHT30;59417;44.788;10.334;2023-04-06T13:37:37;16.61;28.52
28175;SHT30;59417;44.788;10.334;2023-04-06T13:40:04;16.91;27.80
28175;SHT30;59417;44.788;10.334;2023-04-06T13:42:30;17.17;28.40
28175;SHT30;59417;44.788;10.334;2023-04-06T13:44:56;17.09;26.54
28175;SHT30;59417;44.788;10.334;2023-04-06T13:47:21;16.65;26.13
28175;SHT30;59417;44.788;10.334;2023-04-06T13:49:50;16.57;26.98
28175;SHT30;59417;44.788;10.334;2023-04-06T13:52:17;16.91;29.31
28175;SHT30;59417;44.788;10.334;2023-04-06T13:54:42;17.20;27.13
28175;SHT30;59417;44.788;10.334;2023-04-06T13:57:08;17.22;28.47
28175;SHT30;59417;44.788;10.334;2023-04-06T13:59:35;17.41;27.84
28175;SHT30;59417;44.788;10.334;2023-04-06T14:02:05;17.61;27.53
28175;SHT30;59417;44.788;10.334;2023-04-06T14:04:31;17.55;28.12
28175;SHT30;59417;44.788;10.334;2023-04-06T14:07:01;17.73;28.08
28175;SHT30;59417;44.788;10.334;2023-04-06T14:09:27;17.80;28.13
28175;SHT30;59417;44.788;10.334;2023-04-06T14:11:53;17.61;27.07
28175;SHT30;59417;44.788;10.334;2023-04-06T14:14:20;17.64;28.00
28175;SHT30;59417;44.788;10.334;2023-04-06T14:16:46;17.63;27.15
28175;SHT30;59417;44.788;10.334;2023-04-06T14:19:15;17.12;27.22
28175;SHT30;59417;44.788;10.334;2023-04-06T14:21:43;16.72;26.31
28175;SHT30;59417;44.788;10.334;2023-04-06T14:24:10;16.68;26.50
28175;SHT30;59417;44.788;10.334;2023-04-06T14:26:36;16.84;29.52
28175;SHT30;59417;44.788;10.334;2023-04-06T14:29:03;16.92;27.30
28175;SHT30;59417;44.788;10.334;2023-04-06T14:31:30;16.96;28.29
28175;SHT30;59417;44.788;10.334;2023-04-06T14:33:56;17.13;30.25
28175;SHT30;59417;44.788;10.334;2023-04-06T14:36:22;17.36;27.62
28175;SHT30;59417;44.788;10.334;2023-04-06T14:38:48;16.92;26.87
28175;SHT30;59417;44.788;10.334;2023-04-06T14:41:22;17.15;30.52
28175;SHT30;59417;44.788;10.334;2023-04-06T14:43:48;17.05;26.25
28175;SHT30;59417;44.788;10.334;2023-04-06T14:46:14;17.19;27.20
28175;SHT30;59417;44.788;10.334;2023-04-06T14:48:43;16.73;27.87
28175;SHT30;59417;44.788;10.334;2023-04-06T14:51:09;16.75;27.05
28175;SHT30;59417;44.788;10.334;2023-04-06T14:53:35;16.45;27.25
28175;SHT30;59417;44.788;10.334;2023-04-06T14:56:00;16.51;29.69
28175;SHT30;59417;44.788;10.334;2023-04-06T14:58:26;16.61;27.57
28175;SHT30;59417;44.788;10.334;2023-04-06T15:00:56;16.69;28.26
28175;SHT30;59417;44.788;10.334;2023-04-06T15:03:24;16.91;28.12
28175;SHT30;59417;44.788;10.334;2023-04-06T15:05:54;17.17;27.23
28175;SHT30;59417;44.788;10.334;2023-04-06T15:08:21;17.31;27.54
28175;SHT30;59417;44.788;10.334;2023-04-06T15:10:48;17.23;28.13
28175;SHT30;59417;44.788;10.334;2023-04-06T15:13:14;17.41;29.50
28175;SHT30;59417;44.788;10.334;2023-04-06T15:15:43;17.26;27.11
28175;SHT30;59417;44.788;10.334;2023-04-06T15:18:10;16.59;26.54
28175;SHT30;59417;44.788;10.334;2023-04-06T15:20:36;16.55;28.00
28175;SHT30;59417;44.788;10.334;2023-04-06T15:23:02;16.59;28.45
28175;SHT30;59417;44.788;10.334;2023-04-06T15:25:29;16.73;29.37
28175;SHT30;59417;44.788;10.334;2023-04-06T15:27:55;16.79;29.10
28175;SHT30;59417;44.788;10.334;2023-04-06T15:30:21;16.78;27.71